»·PEaware :: AAL182 ZSPD-KLAX

AAL182 :: ZSPD-KLAX

FLIGHT INFORMATION

Flight Status: Arrived
Operator:
American Airlines
More flights by this operator :: More flights under this callsign
Pilot: Henderson P. (1210)
Aircraft: BOEING 777-200
(B772)
More flights by this aircraft type
Origin: ZSPD Pudong
China
Destination: KLAX Los Angeles Intl
United States
More flights between these airports :: More routes between these airports
Route: +LAM11D LAMEN A593 FUE Y23 TAE V17 KTE Y33 SHOOT Y71 XAC Y233 PQE Y108 OJC OTR8 KAGIS Y809 SPEAR Y808 ONION OTR5 ADNAP R591 ADGOR 44N160E 46N170E 47N180E 49N170W 51N160W 50N150W 47N140W/N0479F410 42N130W VESPA ENI AVE SADDE6
File this flight plan on PilotEdge
Remarks: SEL / KPQS PBN / A1B1C1D1L1O1S1 NAV / RNVD1E2A1 DOF / 130924 REG / N776AN SEL / KPQS RVR / 75 OPR / AMERICAN AIRLINES ORGN / DALLAS PER / D / V /
Altitude:
(Current/Filed)
35,000ft
Speed:
(Current/Filed)
492kts
Departed: 24-Sep-13 03:42 AM
Arrived: 24-Sep-13 03:18 PM
Distance/Time
Traveled:
5620nm/11:36
Distance/Time
To Go:
Arrived

Flight Plot

Page will automatically refresh every two minutes.


Map Options




Map Legend


Flown Route
Filed Route
Departure Airport
Arrival Airport
Navaid (VOR, NDB)
Fix

Horizontal Profiles

Position Reports

Time Latitude Longitude Heading Altitude Ground
Speed
24-Sep-13 03:28 31.154541 121.803466 252 23ft 0kts
24-Sep-13 03:29 31.154541 121.803466 252 23ft 0kts
24-Sep-13 03:30 31.154541 121.803466 252 23ft 0kts
24-Sep-13 03:31 31.154541 121.803466 252 23ft 0kts
24-Sep-13 03:32 31.154541 121.803466 252 23ft 0kts
24-Sep-13 03:33 31.154541 121.803466 252 23ft 0kts
24-Sep-13 03:34 31.154541 121.803463 252 23ft 0kts
24-Sep-13 03:35 31.154537 121.803431 262 23ft 0kts
24-Sep-13 03:36 31.154652 121.803282 340 23ft 0kts
24-Sep-13 03:37 31.154956 121.804556 43 23ft 7kts
24-Sep-13 03:38 31.156337 121.809109 72 23ft 7kts
24-Sep-13 03:39 31.155547 121.809626 162 23ft 4kts
24-Sep-13 03:40 31.121833 121.822629 157 1553ft 194kts
24-Sep-13 03:41 31.074851 121.860241 143 4352ft 251kts
24-Sep-13 03:42 31.009637 121.911948 144 5915ft 292kts
24-Sep-13 03:43 30.970698 121.984733 87 6195ft 276kts
24-Sep-13 03:44 30.978531 122.075941 81 9780ft 292kts
24-Sep-13 03:45 30.991077 122.176649 84 12275ft 344kts
24-Sep-13 03:46 31.000756 122.298399 92 14141ft 401kts
24-Sep-13 03:47 31.000018 122.433574 92 16667ft 430kts
24-Sep-13 03:48 31.000079 122.576507 91 19004ft 452kts
24-Sep-13 03:49 31.000313 122.725898 90 21244ft 468kts
24-Sep-13 03:50 31.000192 122.881360 91 23110ft 485kts
24-Sep-13 03:51 31.024824 123.036968 62 24789ft 503kts
24-Sep-13 03:52 31.105400 123.172713 53 26595ft 509kts
24-Sep-13 03:53 31.188601 123.307262 53 28108ft 518kts
24-Sep-13 03:54 31.273705 123.445555 53 29371ft 527kts
24-Sep-13 03:55 31.358849 123.585116 53 31115ft 524kts
24-Sep-13 03:56 31.443476 123.724086 52 32684ft 525kts
24-Sep-13 03:57 31.527444 123.862852 52 34598ft 519kts
24-Sep-13 03:58 31.607925 124.002990 60 34904ft 518kts
24-Sep-13 03:59 31.648962 124.164505 76 34912ft 520kts
24-Sep-13 04:00 31.684129 124.329496 74 34905ft 520kts
24-Sep-13 04:01 31.720991 124.492185 74 34905ft 507kts
24-Sep-13 04:02 31.756781 124.652011 74 34935ft 509kts
24-Sep-13 04:03 31.792727 124.813904 74 34934ft 509kts
24-Sep-13 04:04 31.828230 124.976128 75 34934ft 515kts
24-Sep-13 04:05 31.864438 125.139418 74 34934ft 514kts
24-Sep-13 04:06 31.900348 125.302207 75 34934ft 514kts
24-Sep-13 04:07 31.936825 125.465373 74 34935ft 514kts
24-Sep-13 04:08 31.972617 125.628871 75 34934ft 514kts
24-Sep-13 04:09 32.007973 125.792007 75 34933ft 514kts
24-Sep-13 04:10 32.043339 125.956303 75 34953ft 521kts
24-Sep-13 04:11 32.079018 126.122070 75 34964ft 521kts
24-Sep-13 04:12 32.115234 126.287934 75 34963ft 521kts
24-Sep-13 04:13 32.151450 126.452339 75 34963ft 515kts
24-Sep-13 04:14 32.186791 126.616749 75 34934ft 515kts
24-Sep-13 04:15 32.223248 126.781004 74 34935ft 515kts
24-Sep-13 04:16 32.259264 126.945194 74 34934ft 515kts
24-Sep-13 04:17 32.295687 127.109367 74 34934ft 515kts
24-Sep-13 04:18 32.333183 127.273402 74 34934ft 517kts
24-Sep-13 04:19 32.370218 127.438337 74 34934ft 520kts
24-Sep-13 04:20 32.407154 127.604136 74 34937ft 519kts
24-Sep-13 04:21 32.442943 127.769380 74 34934ft 522kts
24-Sep-13 04:22 32.479148 127.937065 74 34934ft 524kts
24-Sep-13 04:23 32.515106 128.104268 74 34912ft 524kts
24-Sep-13 04:24 32.551018 128.272047 74 34875ft 524kts
24-Sep-13 04:25 32.581612 128.413244 74 34876ft 525kts
24-Sep-13 04:26 32.617495 128.580815 74 34875ft 520kts
24-Sep-13 04:27 32.652301 128.747086 74 34875ft 521kts
24-Sep-13 04:28 32.687204 128.915882 75 34876ft 528kts
24-Sep-13 04:29 32.721414 129.084742 75 34875ft 526kts
24-Sep-13 04:30 32.755692 129.254147 74 34875ft 525kts
24-Sep-13 04:31 32.790348 129.423136 75 34876ft 525kts
24-Sep-13 04:32 32.823863 129.592199 75 34875ft 522kts
24-Sep-13 04:33 32.856787 129.759520 76 34875ft 520kts
24-Sep-13 04:34 32.889207 129.927677 76 34875ft 520kts
24-Sep-13 04:35 32.921280 130.095340 76 34876ft 520kts
24-Sep-13 04:36 32.954088 130.263430 76 34875ft 520kts
24-Sep-13 04:37 32.986180 130.431799 76 34875ft 520kts
24-Sep-13 04:38 33.017988 130.600281 76 34875ft 520kts
24-Sep-13 04:39 33.049273 130.767320 76 34904ft 515kts
24-Sep-13 04:40 33.080317 130.934380 76 34905ft 515kts
24-Sep-13 04:41 33.111013 131.100879 76 34905ft 515kts
24-Sep-13 04:42 33.141552 131.267856 76 34905ft 515kts
24-Sep-13 04:43 33.172163 131.434819 76 34904ft 510kts
24-Sep-13 04:44 33.201850 131.601054 76 34905ft 511kts
24-Sep-13 04:45 33.241975 131.763273 61 34905ft 507kts
24-Sep-13 04:46 33.310310 131.910285 59 34905ft 507kts
24-Sep-13 04:47 33.376207 132.059815 60 34905ft 507kts
24-Sep-13 04:48 33.441961 132.209056 60 34905ft 507kts
24-Sep-13 04:49 33.507318 132.359186 60 34904ft 509kts
24-Sep-13 04:50 33.573408 132.511854 60 34905ft 516kts
24-Sep-13 04:51 33.639613 132.665481 60 34905ft 515kts
24-Sep-13 04:52 33.704955 132.817775 60 34905ft 515kts
24-Sep-13 04:53 33.770783 132.971882 60 34905ft 515kts
24-Sep-13 04:54 33.835981 133.125192 60 34905ft 515kts
24-Sep-13 04:55 33.901186 133.279201 60 34905ft 515kts
24-Sep-13 04:56 33.965904 133.432745 60 34905ft 510kts
24-Sep-13 04:57 34.030105 133.585747 60 34933ft 511kts
24-Sep-13 04:58 34.094153 133.738302 60 34934ft 510kts
24-Sep-13 04:59 34.157869 133.891938 61 34934ft 510kts
24-Sep-13 05:00 34.218503 134.047421 68 34934ft 513kts
24-Sep-13 05:01 34.251198 134.216098 75 34934ft 515kts
24-Sep-13 05:02 34.284270 134.384719 74 34934ft 514kts
24-Sep-13 05:03 34.318445 134.553079 74 34935ft 514kts
24-Sep-13 05:04 34.351561 134.721760 74 34934ft 514kts
24-Sep-13 05:05 34.384173 134.889793 75 34904ft 513kts
24-Sep-13 05:06 34.411138 135.057926 77 34905ft 507kts
24-Sep-13 05:07 34.437927 135.226633 77 34905ft 507kts
24-Sep-13 05:08 34.465203 135.394597 77 34905ft 507kts
24-Sep-13 05:09 34.491972 135.562544 76 34905ft 512kts
24-Sep-13 05:10 34.518956 135.734155 76 34904ft 517kts
24-Sep-13 05:11 34.545996 135.905662 77 34905ft 517kts
24-Sep-13 05:12 34.572168 136.076983 77 34905ft 517kts
24-Sep-13 05:13 34.598367 136.248691 77 34936ft 516kts
24-Sep-13 05:14 34.624415 136.420913 78 34934ft 518kts
24-Sep-13 05:15 34.650389 136.593369 77 34934ft 519kts
24-Sep-13 05:16 34.676794 136.765977 78 34937ft 518kts
24-Sep-13 05:17 34.701998 136.937997 79 34916ft 513kts
24-Sep-13 05:18 34.707423 137.112116 88 34904ft 513kts
24-Sep-13 05:19 34.708319 137.285805 87 34905ft 516kts
24-Sep-13 05:20 34.710193 137.460718 87 34907ft 518kts
24-Sep-13 05:21 34.711759 137.635992 87 34904ft 518kts
24-Sep-13 05:22 34.713158 137.812230 87 34905ft 517kts
24-Sep-13 05:23 34.713833 137.986801 87 34905ft 516kts
24-Sep-13 05:24 34.714446 138.131992 87 34934ft 512kts
24-Sep-13 05:25 34.714938 138.304713 87 34935ft 512kts
24-Sep-13 05:26 34.716069 138.506982 87 34935ft 512kts
24-Sep-13 05:27 34.716133 138.651564 88 34934ft 512kts
24-Sep-13 05:28 34.715961 138.824957 88 34935ft 512kts
24-Sep-13 05:29 34.714659 139.111835 88 34931ft 508kts
24-Sep-13 05:31 34.712678 139.340849 88 34932ft 507kts
24-Sep-13 05:32 34.747379 139.501604 54 34944ft 493kts
24-Sep-13 05:33 34.823264 139.641113 55 34967ft 494kts
24-Sep-13 05:34 34.893281 139.786568 56 34963ft 498kts
24-Sep-13 05:35 34.963479 139.931464 55 34967ft 498kts
24-Sep-13 05:36 35.036536 140.075569 55 34958ft 495kts
24-Sep-13 05:37 35.108823 140.219838 55 34960ft 496kts
24-Sep-13 05:38 35.179937 140.363809 58 34965ft 496kts
24-Sep-13 05:39 35.230316 140.521943 67 34964ft 501kts
24-Sep-13 05:40 35.277248 140.683349 67 34992ft 506kts
24-Sep-13 05:41 35.326326 140.847904 68 34994ft 519kts
24-Sep-13 05:42 35.376140 141.015444 68 34994ft 518kts
24-Sep-13 05:43 35.424994 141.181561 68 34993ft 518kts
24-Sep-13 05:44 35.473901 141.348916 68 34994ft 518kts
24-Sep-13 05:45 35.521916 141.514207 68 34994ft 518kts
24-Sep-13 05:46 35.570212 141.681486 68 34994ft 519kts
24-Sep-13 05:47 35.618254 141.848851 69 34991ft 518kts
24-Sep-13 05:48 35.665931 142.015918 69 34991ft 518kts
24-Sep-13 05:49 35.713561 142.183925 69 34991ft 519kts
24-Sep-13 05:50 35.761000 142.351265 69 34996ft 518kts
24-Sep-13 05:51 35.807963 142.519586 68 34991ft 518kts
24-Sep-13 05:52 35.878518 142.673531 50 34999ft 513kts
24-Sep-13 05:53 35.962500 142.815995 52 34994ft 514kts
24-Sep-13 05:54 36.044267 142.961296 52 34993ft 514kts
24-Sep-13 05:55 36.126002 143.106771 53 34993ft 514kts
24-Sep-13 05:56 36.207108 143.252321 53 34994ft 514kts
24-Sep-13 05:57 36.288292 143.398671 53 34993ft 514kts
24-Sep-13 05:58 36.369132 143.544747 52 34994ft 514kts
24-Sep-13 05:59 36.450303 143.692234 53 34994ft 514kts
24-Sep-13 06:00 36.532230 143.837342 45 34994ft 512kts
24-Sep-13 06:01 36.647498 143.933216 22 36347ft 487kts
24-Sep-13 06:02 36.765882 144.015319 24 36963ft 485kts
24-Sep-13 06:03 36.882266 144.099360 25 36964ft 484kts
24-Sep-13 06:04 36.998326 144.183986 28 36959ft 485kts
24-Sep-13 06:05 37.063906 144.335174 79 36966ft 533kts
24-Sep-13 06:06 37.077793 144.520336 80 36964ft 536kts
24-Sep-13 06:07 37.089749 144.706983 81 36963ft 536kts
24-Sep-13 06:08 37.109899 144.891264 77 36964ft 534kts
24-Sep-13 06:09 37.131329 145.076023 77 36964ft 528kts
24-Sep-13 06:10 37.151917 145.258040 77 36964ft 527kts
24-Sep-13 06:11 37.172454 145.439687 77 36964ft 527kts
24-Sep-13 06:12 37.192396 145.621486 74 36961ft 525kts
24-Sep-13 06:13 37.267491 145.764293 29 37001ft 479kts
24-Sep-13 06:14 37.371306 145.869417 33 36993ft 483kts
24-Sep-13 06:15 37.470519 145.984595 34 36994ft 484kts
24-Sep-13 06:16 37.569288 146.099687 35 36993ft 484kts
24-Sep-13 06:17 37.668256 146.215908 35 36992ft 485kts
24-Sep-13 06:18 37.767028 146.332454 35 36993ft 485kts
24-Sep-13 06:19 37.865595 146.449195 35 36995ft 485kts
24-Sep-13 06:20 37.963847 146.566000 35 36993ft 485kts
24-Sep-13 06:21 38.062397 146.683656 35 36992ft 483kts
24-Sep-13 06:22 38.160741 146.801471 35 36991ft 487kts
24-Sep-13 06:23 38.259740 146.920543 35 36995ft 489kts
24-Sep-13 06:24 38.358575 147.039923 35 36992ft 489kts
24-Sep-13 06:25 38.440745 147.139532 35 37021ft 484kts
24-Sep-13 06:26 38.554922 147.278455 35 37023ft 487kts
24-Sep-13 06:27 38.636483 147.378121 34 37020ft 489kts
24-Sep-13 06:28 38.736090 147.500250 34 36988ft 499kts
24-Sep-13 06:29 38.835544 147.622718 34 36905ft 495kts
24-Sep-13 06:30 38.934951 147.745575 35 36904ft 494kts
24-Sep-13 06:31 39.034097 147.868621 35 36906ft 495kts
24-Sep-13 06:32 39.166259 148.033476 35 36905ft 494kts
24-Sep-13 06:33 39.232253 148.116146 35 36905ft 495kts
24-Sep-13 06:34 39.330922 148.240112 35 36905ft 495kts
24-Sep-13 06:35 39.429814 148.364952 35 36912ft 497kts
24-Sep-13 06:36 39.528870 148.490485 35 36932ft 497kts
24-Sep-13 06:37 39.627565 148.616099 35 36933ft 498kts
24-Sep-13 06:38 39.726461 148.742500 35 36932ft 498kts
24-Sep-13 06:39 39.825474 148.869566 35 36933ft 498kts
24-Sep-13 06:40 39.923700 148.996192 35 36933ft 497kts
24-Sep-13 06:41 40.022020 149.123505 35 36932ft 497kts
24-Sep-13 06:42 40.120464 149.251469 35 36932ft 498kts
24-Sep-13 06:43 40.218769 149.379501 35 36937ft 498kts
24-Sep-13 06:44 40.316896 149.508212 35 36933ft 498kts
24-Sep-13 06:45 40.414085 149.637820 39 36935ft 503kts
24-Sep-13 06:46 40.488704 149.797683 56 36936ft 523kts
24-Sep-13 06:47 40.555165 149.969457 54 36935ft 526kts
24-Sep-13 06:48 40.623629 150.137983 53 36934ft 522kts
24-Sep-13 06:49 40.692724 150.308008 54 36934ft 524kts
24-Sep-13 06:50 40.761720 150.479547 54 36935ft 536kts
24-Sep-13 06:51 40.831552 150.654281 54 36934ft 534kts
24-Sep-13 06:52 40.900554 150.827965 54 36934ft 535kts
24-Sep-13 06:53 40.969338 151.002123 54 36935ft 535kts
24-Sep-13 06:54 41.036966 151.174355 55 36933ft 517kts
24-Sep-13 06:55 41.103545 151.344916 55 36934ft 519kts
24-Sep-13 06:56 41.169255 151.514224 55 36934ft 519kts
24-Sep-13 06:57 41.235197 151.685120 55 36934ft 519kts
24-Sep-13 06:58 41.301081 151.856873 55 36935ft 519kts
24-Sep-13 06:59 41.366326 152.027962 55 36934ft 519kts
24-Sep-13 07:00 41.431541 152.199989 56 36934ft 519kts
24-Sep-13 07:01 41.496535 152.372455 56 36935ft 519kts
24-Sep-13 07:02 41.561055 152.544688 56 36934ft 519kts
24-Sep-13 07:03 41.625532 152.717844 56 36934ft 519kts
24-Sep-13 07:04 41.689782 152.891436 56 36935ft 520kts
24-Sep-13 07:05 41.753559 153.064796 56 36915ft 520kts
24-Sep-13 07:06 41.817769 153.240409 56 36905ft 523kts
24-Sep-13 07:07 41.881251 153.415101 56 36905ft 524kts
24-Sep-13 07:09 42.008909 153.769695 56 36905ft 526kts
24-Sep-13 07:10 42.072136 153.946982 56 36905ft 526kts
24-Sep-13 07:11 42.134978 154.124307 55 36904ft 518kts
24-Sep-13 07:12 42.196698 154.299566 56 36905ft 519kts
24-Sep-13 07:13 42.258627 154.476535 56 36905ft 519kts
24-Sep-13 07:14 42.320098 154.653315 56 36905ft 519kts
24-Sep-13 07:15 42.381128 154.829950 56 36905ft 519kts
24-Sep-13 07:16 42.442057 155.007425 56 36905ft 518kts
24-Sep-13 07:17 42.502488 155.184587 56 36905ft 517kts
24-Sep-13 07:18 42.562419 155.361423 56 36905ft 517kts
24-Sep-13 07:19 42.622014 155.538405 57 36905ft 513kts
24-Sep-13 07:20 42.681164 155.715213 57 36904ft 510kts
24-Sep-13 07:21 42.739657 155.891192 58 36905ft 510kts
24-Sep-13 07:22 42.797560 156.066530 58 36905ft 504kts
24-Sep-13 07:23 42.854747 156.240831 58 36905ft 505kts
24-Sep-13 07:24 42.912114 156.416819 58 36905ft 505kts
24-Sep-13 07:25 42.968804 156.591876 58 36905ft 505kts
24-Sep-13 07:26 43.025495 156.768094 58 36903ft 509kts
24-Sep-13 07:27 43.083779 156.950496 58 36905ft 534kts
24-Sep-13 07:28 43.133039 157.105632 58 36905ft 532kts
24-Sep-13 07:29 43.201635 157.323196 58 36905ft 532kts
24-Sep-13 07:30 43.250457 157.479145 58 36905ft 533kts
24-Sep-13 07:31 43.308533 157.665874 58 36905ft 533kts
24-Sep-13 07:32 43.376122 157.884883 58 36905ft 533kts
24-Sep-13 07:33 43.424224 158.041881 58 36905ft 533kts
24-Sep-13 07:34 43.481484 158.230017 59 36839ft 533kts
24-Sep-13 07:35 43.538564 158.418938 59 36816ft 533kts
24-Sep-13 07:36 43.595509 158.608835 59 36822ft 539kts
24-Sep-13 07:37 43.653022 158.801987 60 36814ft 539kts
24-Sep-13 07:38 43.708574 158.990037 61 36825ft 526kts
24-Sep-13 07:39 43.763982 159.178991 61 36816ft 528kts
24-Sep-13 07:40 43.818732 159.366997 61 36817ft 528kts
24-Sep-13 07:41 43.873742 159.557448 61 36817ft 529kts
24-Sep-13 07:42 43.928247 159.746129 62 36812ft 529kts
24-Sep-13 07:43 43.982038 159.936382 62 36820ft 526kts
24-Sep-13 07:44 44.032882 160.128819 65 36813ft 536kts
24-Sep-13 07:45 44.080491 160.324474 65 36817ft 528kts
24-Sep-13 07:46 44.128245 160.518115 64 36821ft 531kts
24-Sep-13 07:47 44.177120 160.714784 65 36816ft 533kts
24-Sep-13 07:48 44.224526 160.909459 65 36813ft 530kts
24-Sep-13 07:49 44.271639 161.104784 65 36817ft 533kts
24-Sep-13 07:50 44.318402 161.300737 65 36818ft 533kts
24-Sep-13 07:51 44.365165 161.498002 65 36824ft 532kts
24-Sep-13 07:52 44.411372 161.695145 66 36820ft 532kts
24-Sep-13 07:53 44.457197 161.892034 66 36819ft 532kts
24-Sep-13 07:54 44.502966 162.090405 66 36818ft 533kts
24-Sep-13 07:55 44.548219 162.288601 66 36813ft 530kts
24-Sep-13 07:56 44.592896 162.486007 66 36819ft 536kts
24-Sep-13 07:57 44.637515 162.684937 66 36813ft 527kts
24-Sep-13 07:58 44.681453 162.882804 67 36816ft 535kts
24-Sep-13 07:59 44.725383 163.082142 66 36820ft 525kts
24-Sep-13 08:00 44.767765 163.276579 66 36814ft 521kts
24-Sep-13 08:01 44.810380 163.473857 66 36811ft 523kts
24-Sep-13 08:02 44.851761 163.666971 67 36807ft 522kts
24-Sep-13 08:03 44.894039 163.866439 67 36810ft 523kts
24-Sep-13 08:04 44.935376 164.063300 67 36815ft 522kts
24-Sep-13 08:05 44.976376 164.260463 67 36814ft 526kts
24-Sep-13 08:06 45.017227 164.458781 67 36817ft 521kts
24-Sep-13 08:07 45.057598 164.656835 67 36820ft 524kts
24-Sep-13 08:08 45.097624 164.855083 68 36817ft 523kts
24-Sep-13 08:09 45.137164 165.052844 68 36813ft 523kts
24-Sep-13 08:10 45.176423 165.251248 68 36813ft 521kts
24-Sep-13 08:11 45.215441 165.450235 68 36817ft 523kts
24-Sep-13 08:12 45.254125 165.649773 68 36823ft 521kts
24-Sep-13 08:13 45.292397 165.849184 68 36818ft 525kts
24-Sep-13 08:14 45.330117 166.048113 68 36819ft 524kts
24-Sep-13 08:15 45.367234 166.245395 66 36753ft 510kts
24-Sep-13 08:16 45.403538 166.440612 67 36699ft 512kts
24-Sep-13 08:17 45.439686 166.636985 67 36701ft 511kts
24-Sep-13 08:18 45.475480 166.833526 67 36698ft 511kts
24-Sep-13 08:19 45.510945 167.030474 67 36696ft 512kts
24-Sep-13 08:20 45.545998 167.227121 67 36698ft 513kts
24-Sep-13 08:21 45.580652 167.423814 67 36697ft 512kts
24-Sep-13 08:22 45.615283 167.622480 68 36697ft 512kts
24-Sep-13 08:23 45.654987 167.853093 68 36700ft 513kts
24-Sep-13 08:24 45.683104 168.018217 68 36697ft 513kts
24-Sep-13 08:25 45.716648 168.217212 68 36699ft 513kts
24-Sep-13 08:26 45.749938 168.417136 68 36698ft 514kts
24-Sep-13 08:27 45.782603 168.615393 68 36697ft 513kts
24-Sep-13 08:28 45.815104 168.815283 69 36690ft 514kts
24-Sep-13 08:29 45.847332 169.015713 69 36687ft 514kts
24-Sep-13 08:30 45.879008 169.215032 69 36692ft 515kts
24-Sep-13 08:31 45.910610 169.416494 69 36693ft 515kts
24-Sep-13 08:32 45.942081 169.616655 69 36689ft 514kts
24-Sep-13 08:33 45.972810 169.818662 69 36688ft 513kts
24-Sep-13 08:34 46.002917 170.019732 70 36687ft 515kts
24-Sep-13 08:35 46.031766 170.221607 70 36688ft 516kts
24-Sep-13 08:36 46.060222 170.425018 71 36689ft 516kts
24-Sep-13 08:37 46.084385 170.593073 70 36689ft 515kts
24-Sep-13 08:38 46.117879 170.829874 71 36688ft 515kts
24-Sep-13 08:39 46.145721 171.032217 71 36687ft 515kts
24-Sep-13 08:40 46.168614 171.201222 71 36689ft 516kts
24-Sep-13 08:41 46.195877 171.404987 71 36689ft 517kts
24-Sep-13 08:42 46.222730 171.608536 71 36691ft 517kts
24-Sep-13 08:43 46.249282 171.812839 71 36689ft 517kts
24-Sep-13 08:44 46.275518 172.017593 72 36689ft 518kts
24-Sep-13 08:45 46.301651 172.224812 74 36689ft 526kts
24-Sep-13 08:46 46.327466 172.432536 74 36687ft 522kts
24-Sep-13 08:47 46.352813 172.639820 74 36689ft 524kts
24-Sep-13 08:48 46.377866 172.848041 75 36688ft 524kts
24-Sep-13 08:49 46.402463 173.055714 75 36689ft 524kts
24-Sep-13 08:50 46.426794 173.264332 75 36690ft 523kts
24-Sep-13 08:51 46.450729 173.473165 75 36688ft 525kts
24-Sep-13 08:52 46.474256 173.681818 75 36693ft 526kts
24-Sep-13 08:53 46.497519 173.891912 75 36688ft 525kts
24-Sep-13 08:54 46.520265 174.100823 75 36691ft 524kts
24-Sep-13 08:55 46.542667 174.310367 78 36621ft 526kts
24-Sep-13 08:56 46.564791 174.520929 78 36621ft 522kts
24-Sep-13 08:57 46.586260 174.729038 78 36617ft 519kts
24-Sep-13 08:58 46.607359 174.937578 79 36619ft 521kts
24-Sep-13 08:59 46.628047 175.145789 79 36621ft 519kts
24-Sep-13 09:00 46.642909 175.297905 79 36616ft 521kts
24-Sep-13 09:01 46.653260 175.405238 79 36622ft 520kts
24-Sep-13 09:02 46.663686 175.514085 79 36618ft 519kts
24-Sep-13 09:03 46.666924 175.548188 79 36612ft 519kts
24-Sep-13 09:04 46.673192 175.614749 79 36620ft 521kts
24-Sep-13 09:05 46.690607 175.801306 79 36623ft 520kts
24-Sep-13 09:06 46.706343 175.972892 79 36618ft 520kts
24-Sep-13 09:07 46.725186 176.182187 80 36623ft 518kts
24-Sep-13 09:08 46.743560 176.390976 80 36615ft 521kts
24-Sep-13 09:09 46.761660 176.600993 80 36660ft 521kts
24-Sep-13 09:10 46.779392 176.811273 80 36659ft 521kts
24-Sep-13 09:11 46.796722 177.021425 80 36661ft 521kts
24-Sep-13 09:12 46.813681 177.231970 80 36660ft 521kts
24-Sep-13 09:13 46.830220 177.442415 81 36659ft 522kts
24-Sep-13 09:14 46.846401 177.652676 81 36627ft 520kts
24-Sep-13 09:15 46.862174 177.863387 81 36458ft 522kts
24-Sep-13 09:16 46.877632 178.075183 81 36274ft 521kts
24-Sep-13 09:17 46.892576 178.285039 81 36151ft 520kts
24-Sep-13 09:18 46.907215 178.496259 81 36150ft 521kts
24-Sep-13 09:19 46.921350 178.706018 81 36145ft 520kts
24-Sep-13 09:20 46.935190 178.917350 82 36148ft 522kts
24-Sep-13 09:21 46.948740 179.129854 82 36150ft 521kts
24-Sep-13 09:22 46.961987 179.344364 82 36150ft 522kts
24-Sep-13 09:23 46.974826 179.556445 82 36150ft 521kts
24-Sep-13 09:24 46.987410 179.769596 84 36150ft 525kts
24-Sep-13 09:25 46.999876 179.982178 80 36148ft 527kts
24-Sep-13 09:26 47.043841 -179.813022 65 36152ft 524kts
24-Sep-13 09:27 47.095803 -179.613068 68 36147ft 525kts
24-Sep-13 09:28 47.146166 -179.411487 67 36262ft 527kts
24-Sep-13 09:29 47.196593 -179.207487 68 37618ft 525kts
24-Sep-13 09:30 47.245885 -179.004643 68 38152ft 529kts
24-Sep-13 09:31 47.294972 -178.800578 70 38151ft 526kts
24-Sep-13 09:32 47.343514 -178.596859 71 38148ft 527kts
24-Sep-13 09:33 47.391924 -178.391787 71 38149ft 525kts
24-Sep-13 09:34 47.439270 -178.189335 71 38152ft 523kts
24-Sep-13 09:35 47.486402 -177.985933 71 38151ft 521kts
24-Sep-13 09:36 47.532998 -177.782968 71 38148ft 521kts
24-Sep-13 09:37 47.579149 -177.579950 71 38150ft 522kts
24-Sep-13 09:38 47.625354 -177.374642 72 38152ft 523kts
24-Sep-13 09:39 47.670719 -177.171274 72 38160ft 523kts
24-Sep-13 09:40 47.716255 -176.965093 72 38160ft 523kts
24-Sep-13 09:41 47.753780 -176.793647 72 38158ft 522kts
24-Sep-13 09:42 47.798303 -176.588360 72 38135ft 527kts
24-Sep-13 09:43 47.843520 -176.377801 75 38096ft 530kts
24-Sep-13 09:44 47.887695 -176.169938 75 38090ft 527kts
24-Sep-13 09:45 47.931649 -175.960908 75 38089ft 527kts
24-Sep-13 09:46 47.975075 -175.752325 75 38089ft 528kts
24-Sep-13 09:47 48.018309 -175.542432 75 38089ft 527kts
24-Sep-13 09:48 48.061251 -175.331752 75 38090ft 526kts
24-Sep-13 09:49 48.103302 -175.123201 76 38087ft 527kts
24-Sep-13 09:50 48.145383 -174.912403 76 38088ft 527kts
24-Sep-13 09:51 48.187017 -174.701394 76 38090ft 528kts
24-Sep-13 09:52 48.228231 -174.490278 76 38086ft 528kts
24-Sep-13 09:53 48.269106 -174.278594 76 38088ft 528kts
24-Sep-13 09:54 48.309262 -174.068336 75 37950ft 515kts
24-Sep-13 09:55 48.348930 -173.858269 78 37809ft 523kts
24-Sep-13 09:56 48.388116 -173.648413 78 37811ft 522kts
24-Sep-13 09:57 48.427384 -173.435682 78 37810ft 522kts
24-Sep-13 09:58 48.465852 -173.224944 78 37808ft 523kts
24-Sep-13 09:59 48.503897 -173.014050 79 37805ft 521kts
24-Sep-13 10:00 48.541645 -172.802297 79 37810ft 523kts
24-Sep-13 10:01 48.579092 -172.589755 79 37811ft 522kts
24-Sep-13 10:02 48.615963 -172.377971 79 37811ft 520kts
24-Sep-13 10:03 48.652533 -172.165388 77 37809ft 520kts
24-Sep-13 10:04 48.688731 -171.952397 77 37812ft 519kts
24-Sep-13 10:05 48.724538 -171.739054 77 37807ft 519kts
24-Sep-13 10:06 48.759655 -171.527219 78 37808ft 520kts
24-Sep-13 10:07 48.794433 -171.314783 78 37809ft 520kts
24-Sep-13 10:08 48.828950 -171.101244 78 37808ft 520kts
24-Sep-13 10:09 48.863035 -170.887594 78 37809ft 521kts
24-Sep-13 10:10 48.896766 -170.673537 78 37810ft 519kts
24-Sep-13 10:11 48.929973 -170.460364 78 37810ft 519kts
24-Sep-13 10:12 48.963187 -170.245947 79 37809ft 520kts
24-Sep-13 10:13 48.995225 -170.032012 81 37949ft 522kts
24-Sep-13 10:14 49.043675 -169.820781 72 38051ft 521kts
24-Sep-13 10:15 49.095452 -169.614819 73 38050ft 520kts
24-Sep-13 10:16 49.146982 -169.408122 73 38049ft 521kts
24-Sep-13 10:17 49.198232 -169.201513 73 38040ft 520kts
24-Sep-13 10:18 49.248731 -168.993807 74 38040ft 519kts
24-Sep-13 10:19 49.298789 -168.785707 74 38036ft 519kts
24-Sep-13 10:20 49.348348 -168.577702 74 38040ft 519kts
24-Sep-13 10:21 49.397663 -168.368689 74 38041ft 520kts
24-Sep-13 10:22 49.446355 -168.160370 74 38161ft 517kts
24-Sep-13 10:23 49.494539 -167.952129 74 38342ft 518kts
24-Sep-13 10:24 49.542537 -167.742736 75 38417ft 518kts
24-Sep-13 10:25 49.590155 -167.532841 75 38420ft 516kts
24-Sep-13 10:26 49.637182 -167.323604 75 38421ft 518kts
24-Sep-13 10:27 49.683855 -167.113768 75 38419ft 517kts
24-Sep-13 10:28 49.730259 -166.903112 75 38418ft 516kts
24-Sep-13 10:29 49.776292 -166.691979 75 38419ft 516kts
24-Sep-13 10:30 49.821867 -166.480674 76 38427ft 518kts
24-Sep-13 10:31 49.867526 -166.266884 77 38459ft 525kts
24-Sep-13 10:32 49.912955 -166.051931 77 38457ft 523kts
24-Sep-13 10:33 49.957988 -165.836470 78 38459ft 524kts
24-Sep-13 10:34 50.002646 -165.620498 78 38459ft 524kts
24-Sep-13 10:35 50.046767 -165.404778 78 38460ft 523kts
24-Sep-13 10:36 50.090711 -165.187571 78 38459ft 523kts
24-Sep-13 10:37 50.133873 -164.971937 78 38457ft 524kts
24-Sep-13 10:38 50.177041 -164.753748 78 38457ft 523kts
24-Sep-13 10:39 50.219456 -164.536978 79 38456ft 524kts
24-Sep-13 10:40 50.261461 -164.319844 79 38459ft 522kts
24-Sep-13 10:41 50.303318 -164.101121 82 38357ft 518kts
24-Sep-13 10:42 50.344241 -163.884618 84 38351ft 521kts
24-Sep-13 10:43 50.384937 -163.666797 84 38350ft 520kts
24-Sep-13 10:44 50.425082 -163.449383 84 38348ft 520kts
24-Sep-13 10:45 50.464879 -163.231392 84 38347ft 519kts
24-Sep-13 10:46 50.497647 -163.049919 85 38349ft 518kts
24-Sep-13 10:47 50.543269 -162.794029 85 38348ft 519kts
24-Sep-13 10:48 50.575330 -162.612100 85 38349ft 517kts
24-Sep-13 10:49 50.613494 -162.393081 85 38350ft 518kts
24-Sep-13 10:50 50.657522 -162.136862 85 38349ft 517kts
24-Sep-13 10:51 50.688481 -161.954376 85 38350ft 518kts
24-Sep-13 10:52 50.725494 -161.733779 86 38352ft 517kts
24-Sep-13 10:53 50.762313 -161.511385 81 38477ft 530kts
24-Sep-13 10:54 50.798641 -161.289145 80 38478ft 518kts
24-Sep-13 10:55 50.834627 -161.066095 80 38513ft 525kts
24-Sep-13 10:56 50.870326 -160.841703 78 38521ft 521kts
24-Sep-13 10:57 50.905487 -160.617772 79 38598ft 534kts
24-Sep-13 10:58 50.942105 -160.385250 80 38599ft 547kts
24-Sep-13 10:59 50.977557 -160.150048 80 38599ft 545kts
24-Sep-13 11:09 50.859256 -157.837072 103 38599ft 526kts
24-Sep-13 11:10 50.841884 -157.606943 103 38599ft 525kts
24-Sep-13 11:11 50.824122 -157.377795 104 38599ft 525kts
24-Sep-13 11:12 50.805868 -157.148264 104 38599ft 525kts
24-Sep-13 11:13 50.787165 -156.918934 104 38599ft 525kts
24-Sep-13 11:14 50.767992 -156.689672 102 38675ft 527kts
24-Sep-13 11:15 50.748374 -156.460429 98 38699ft 516kts
24-Sep-13 11:16 50.728829 -156.237322 98 38699ft 516kts
24-Sep-13 11:17 50.708721 -156.012923 98 38689ft 515kts
24-Sep-13 11:18 50.688172 -155.788603 98 38689ft 515kts
24-Sep-13 11:19 50.667268 -155.565270 98 38689ft 515kts
24-Sep-13 11:20 50.645792 -155.340636 99 38689ft 515kts
24-Sep-13 11:21 50.624029 -155.117672 99 38689ft 515kts
24-Sep-13 11:22 50.601778 -154.894292 99 38689ft 515kts
24-Sep-13 11:23 50.579100 -154.671123 99 38689ft 515kts
24-Sep-13 11:24 50.555992 -154.448125 99 38689ft 515kts
24-Sep-13 11:25 50.532458 -154.225351 99 38689ft 515kts
24-Sep-13 11:26 50.508504 -154.002840 100 38689ft 515kts
24-Sep-13 11:27 50.484203 -153.781246 100 38689ft 515kts
24-Sep-13 11:28 50.459395 -153.559113 100 38699ft 515kts
24-Sep-13 11:29 50.434096 -153.336613 100 38699ft 515kts
24-Sep-13 11:30 50.408541 -153.115799 100 38699ft 515kts
24-Sep-13 11:31 50.382476 -152.894435 101 38699ft 515kts
24-Sep-13 11:32 50.355993 -152.673342 101 38702ft 516kts
24-Sep-13 11:33 50.329012 -152.451828 101 38793ft 521kts
24-Sep-13 11:34 50.301439 -152.229211 101 38799ft 519kts
24-Sep-13 11:35 50.273473 -152.007091 101 38799ft 519kts
24-Sep-13 11:36 50.244787 -151.782942 99 38800ft 533kts
24-Sep-13 11:37 50.215368 -151.556739 99 38799ft 531kts
24-Sep-13 11:38 50.185350 -151.329607 99 38790ft 531kts
24-Sep-13 11:39 50.155013 -151.103670 99 38789ft 531kts
24-Sep-13 11:40 50.124423 -150.879352 99 38789ft 531kts
24-Sep-13 11:41 50.093098 -150.653143 99 38803ft 532kts
24-Sep-13 11:42 50.061616 -150.426203 98 38936ft 542kts
24-Sep-13 11:43 50.028718 -150.196652 99 38989ft 541kts
24-Sep-13 11:44 49.994031 -149.968433 104 38989ft 543kts
24-Sep-13 11:45 49.939659 -149.748340 110 38990ft 545kts
24-Sep-13 11:46 49.884234 -149.529903 109 38989ft 545kts
24-Sep-13 11:47 49.839548 -149.346295 108 38990ft 545kts
24-Sep-13 11:48 49.776249 -149.091190 109 38999ft 545kts
24-Sep-13 11:49 49.730277 -148.908765 108 38999ft 545kts
24-Sep-13 11:50 49.674971 -148.691275 107 38999ft 542kts
24-Sep-13 11:51 49.619250 -148.474294 108 38999ft 543kts
24-Sep-13 11:52 49.563151 -148.257916 108 38999ft 543kts
24-Sep-13 11:53 49.506615 -148.041906 108 38999ft 543kts
24-Sep-13 11:54 49.449878 -147.827150 108 38999ft 543kts
24-Sep-13 11:55 49.392511 -147.612027 108 39000ft 543kts
24-Sep-13 11:56 49.335273 -147.399338 108 38999ft 530kts
24-Sep-13 11:57 49.278653 -147.190853 109 38999ft 531kts
24-Sep-13 11:58 49.221444 -146.982063 109 38999ft 531kts
24-Sep-13 11:59 49.164052 -146.774452 109 38999ft 531kts
24-Sep-13 12:00 49.105897 -146.565928 109 38999ft 531kts
24-Sep-13 12:01 49.047715 -146.359120 110 38999ft 531kts
24-Sep-13 12:02 48.989194 -146.152903 110 39009ft 531kts
24-Sep-13 12:03 48.930078 -145.946358 110 39020ft 531kts
24-Sep-13 12:04 48.870643 -145.740493 110 39023ft 532kts
24-Sep-13 12:05 48.810733 -145.534780 110 39022ft 531kts
24-Sep-13 12:06 48.750724 -145.330402 110 39023ft 531kts
24-Sep-13 12:07 48.690133 -145.125762 111 39024ft 531kts
24-Sep-13 12:08 48.629283 -144.922045 111 39025ft 532kts
24-Sep-13 12:09 48.567900 -144.718145 111 39023ft 531kts
24-Sep-13 12:10 48.506256 -144.515059 111 39025ft 532kts
24-Sep-13 12:11 48.444162 -144.312150 111 39021ft 531kts
24-Sep-13 12:12 48.381992 -144.110747 111 39007ft 533kts
24-Sep-13 12:13 48.318940 -143.908153 111 39022ft 532kts
24-Sep-13 12:14 48.255856 -143.706978 112 38994ft 531kts
24-Sep-13 12:15 48.192497 -143.506604 112 38995ft 531kts
24-Sep-13 12:16 48.128781 -143.306632 112 38994ft 533kts
24-Sep-13 12:17 48.064545 -143.106714 112 38991ft 532kts
24-Sep-13 12:18 48.000115 -142.907653 112 38993ft 536kts
24-Sep-13 12:19 47.933612 -142.703823 111 38995ft 547kts
24-Sep-13 12:20 47.866689 -142.500354 112 39026ft 546kts
24-Sep-13 12:21 47.799693 -142.298379 112 39021ft 545kts
24-Sep-13 12:22 47.732058 -142.095906 112 39023ft 545kts
24-Sep-13 12:23 47.663953 -141.893680 112 38996ft 546kts
24-Sep-13 12:24 47.595702 -141.692639 112 38992ft 545kts
24-Sep-13 12:25 47.527353 -141.492752 112 38995ft 544kts
24-Sep-13 12:26 47.458248 -141.292354 112 38993ft 546kts
24-Sep-13 12:27 47.388740 -141.092206 113 38994ft 546kts
24-Sep-13 12:28 47.319298 -140.893833 113 38995ft 546kts
24-Sep-13 12:29 47.249142 -140.694874 113 38994ft 545kts
24-Sep-13 12:30 47.178762 -140.496708 113 38996ft 546kts
24-Sep-13 12:31 47.108162 -140.298006 114 38993ft 548kts
24-Sep-13 12:32 47.036562 -140.100573 114 39023ft 547kts
24-Sep-13 12:33 46.962359 -139.905469 118 39023ft 548kts
24-Sep-13 12:34 46.880951 -139.717196 119 39022ft 548kts
24-Sep-13 12:35 46.800090 -139.527425 118 39026ft 548kts
24-Sep-13 12:36 46.720094 -139.337422 118 39023ft 548kts
24-Sep-13 12:37 46.639304 -139.148668 118 39025ft 548kts
24-Sep-13 12:38 46.558350 -138.961020 119 39023ft 547kts
24-Sep-13 12:39 46.476481 -138.772619 119 39022ft 550kts
24-Sep-13 12:40 46.394882 -138.586050 119 39021ft 549kts
24-Sep-13 12:41 46.312528 -138.399052 119 39022ft 548kts
24-Sep-13 12:42 46.230414 -138.213830 119 39021ft 547kts
24-Sep-13 12:43 46.147433 -138.027892 119 39021ft 547kts
24-Sep-13 12:44 46.064451 -137.843165 119 39021ft 547kts
24-Sep-13 12:45 45.981395 -137.659485 119 39024ft 547kts
24-Sep-13 12:46 45.899555 -137.479660 119 39022ft 534kts
24-Sep-13 12:47 45.817722 -137.301011 119 39029ft 534kts
24-Sep-13 12:48 45.735978 -137.123653 120 39026ft 534kts
24-Sep-13 12:49 45.667344 -136.975592 120 39031ft 534kts
24-Sep-13 12:50 45.584682 -136.798346 120 39027ft 535kts
24-Sep-13 12:51 45.502030 -136.622231 120 39029ft 534kts
24-Sep-13 12:52 45.419171 -136.446722 121 39029ft 537kts
24-Sep-13 12:53 45.335216 -136.269944 121 39020ft 534kts
24-Sep-13 12:54 45.251845 -136.095536 121 39022ft 534kts
24-Sep-13 12:55 45.168309 -135.921843 121 39020ft 534kts
24-Sep-13 12:56 45.083886 -135.747399 121 39019ft 536kts
24-Sep-13 12:57 44.999630 -135.574290 121 40045ft 532kts
24-Sep-13 12:58 44.915697 -135.402906 123 41026ft 531kts
24-Sep-13 12:59 44.831517 -135.232033 123 41020ft 527kts
24-Sep-13 13:00 44.747493 -135.062528 123 41014ft 528kts
24-Sep-13 13:01 44.663391 -134.893814 123 41016ft 527kts
24-Sep-13 13:02 44.579151 -134.725787 123 41024ft 528kts
24-Sep-13 13:03 44.494300 -134.557565 123 41049ft 527kts
24-Sep-13 13:04 44.409140 -134.389718 124 41065ft 528kts
24-Sep-13 13:05 44.323467 -134.221795 124 41055ft 532kts
24-Sep-13 13:06 44.237560 -134.054390 125 41070ft 530kts
24-Sep-13 13:07 44.152012 -133.888678 127 41061ft 536kts
24-Sep-13 13:08 44.062410 -133.716119 127 41063ft 535kts
24-Sep-13 13:09 43.974982 -133.548702 127 41064ft 537kts
24-Sep-13 13:10 43.887196 -133.381548 127 41065ft 536kts
24-Sep-13 13:11 43.798897 -133.214413 127 41063ft 537kts
24-Sep-13 13:12 43.710026 -133.047112 127 41057ft 536kts
24-Sep-13 13:13 43.621427 -132.881300 127 41070ft 537kts
24-Sep-13 13:14 43.532614 -132.716021 128 41061ft 537kts
24-Sep-13 13:15 43.443547 -132.551199 128 41066ft 534kts
24-Sep-13 13:16 43.353969 -132.386317 128 41070ft 536kts
24-Sep-13 13:17 43.264797 -132.223147 128 41065ft 534kts
24-Sep-13 13:18 43.174682 -132.059124 128 41061ft 536kts
24-Sep-13 13:19 43.084947 -131.896727 129 41066ft 532kts
24-Sep-13 13:20 42.995805 -131.736266 129 41072ft 532kts
24-Sep-13 13:21 42.906470 -131.576311 130 41071ft 523kts
24-Sep-13 13:22 42.817773 -131.418370 131 41069ft 524kts
24-Sep-13 13:23 42.729279 -131.261596 132 41069ft 522kts
24-Sep-13 13:24 42.640365 -131.104924 132 41062ft 523kts
24-Sep-13 13:25 42.551398 -130.948964 132 41103ft 523kts
24-Sep-13 13:26 42.461884 -130.792884 132 41094ft 522kts
24-Sep-13 13:27 42.372150 -130.637205 131 41099ft 525kts
24-Sep-13 13:28 42.282572 -130.482611 131 41097ft 524kts
24-Sep-13 13:29 42.192019 -130.326972 131 41105ft 525kts
24-Sep-13 13:30 42.101502 -130.172011 132 41105ft 524kts
24-Sep-13 13:31 42.010853 -130.018403 131 41108ft 525kts
24-Sep-13 13:32 41.933090 -129.850404 122 41114ft 528kts
24-Sep-13 13:33 41.858954 -129.680366 123 41110ft 530kts
24-Sep-13 13:34 41.784150 -129.510061 123 41105ft 529kts
24-Sep-13 13:35 41.709044 -129.340234 124 41101ft 527kts
24-Sep-13 13:36 41.633826 -129.171855 124 41095ft 528kts
24-Sep-13 13:37 41.557990 -129.003128 125 41093ft 529kts
24-Sep-13 13:38 41.482056 -128.835068 125 41094ft 528kts
24-Sep-13 13:39 41.405827 -128.667312 125 41096ft 527kts
24-Sep-13 13:40 41.329510 -128.500293 125 41098ft 529kts
24-Sep-13 13:41 41.252707 -128.333140 124 41101ft 529kts
24-Sep-13 13:42 41.175468 -128.165955 124 41099ft 529kts
24-Sep-13 13:43 41.098144 -127.999494 124 41099ft 529kts
24-Sep-13 13:44 41.020823 -127.833942 124 41099ft 529kts
24-Sep-13 13:45 40.942977 -127.668163 125 41079ft 530kts
24-Sep-13 13:46 40.864774 -127.502515 125 41089ft 530kts
24-Sep-13 13:47 40.786696 -127.337730 125 41088ft 530kts
24-Sep-13 13:48 40.708378 -127.173308 125 41089ft 530kts
24-Sep-13 13:49 40.629072 -127.008496 125 41089ft 530kts
24-Sep-13 13:50 40.558724 -126.836953 119 41091ft 532kts
24-Sep-13 13:51 40.490355 -126.664742 121 41079ft 532kts
24-Sep-13 13:52 40.421731 -126.492816 120 41080ft 533kts
24-Sep-13 13:53 40.352372 -126.320618 120 41079ft 533kts
24-Sep-13 13:54 40.282781 -126.149469 120 41079ft 532kts
24-Sep-13 13:55 40.212480 -125.977618 120 41079ft 532kts
24-Sep-13 13:56 40.142716 -125.808046 121 41079ft 531kts
24-Sep-13 13:57 40.072075 -125.637319 122 41075ft 531kts
24-Sep-13 13:58 40.001583 -125.467890 122 41078ft 532kts
24-Sep-13 13:59 39.942185 -125.325794 123 41080ft 535kts
24-Sep-13 14:00 39.858828 -125.127581 123 41081ft 533kts
24-Sep-13 14:01 39.787694 -124.958778 123 41079ft 535kts
24-Sep-13 14:02 39.727601 -124.817816 124 41077ft 534kts
24-Sep-13 14:03 39.655167 -124.648594 124 41079ft 534kts
24-Sep-13 14:04 39.582952 -124.480547 124 41082ft 535kts
24-Sep-13 14:05 39.510073 -124.311827 125 41051ft 533kts
24-Sep-13 14:06 39.437091 -124.143813 125 41042ft 536kts
24-Sep-13 14:07 39.363668 -123.975688 125 41037ft 538kts
24-Sep-13 14:08 39.289911 -123.807713 125 41030ft 538kts
24-Sep-13 14:09 39.215785 -123.639771 125 41022ft 539kts
24-Sep-13 14:10 39.141603 -123.471937 125 41020ft 540kts
24-Sep-13 14:11 39.065473 -123.302802 128 41023ft 543kts
24-Sep-13 14:12 38.961276 -123.172862 153 41022ft 514kts
24-Sep-13 14:13 38.845856 -123.062497 150 41024ft 517kts
24-Sep-13 14:14 38.733310 -122.948203 150 40991ft 509kts
24-Sep-13 14:15 38.622636 -122.835732 150 40988ft 508kts
24-Sep-13 14:16 38.511461 -122.723547 150 40994ft 507kts
24-Sep-13 14:17 38.400266 -122.611806 151 40990ft 509kts
24-Sep-13 14:18 38.289213 -122.500716 151 40998ft 507kts
24-Sep-13 14:19 38.177791 -122.389640 151 40975ft 505kts
24-Sep-13 14:20 38.067570 -122.280219 151 40986ft 502kts
24-Sep-13 14:21 37.957303 -122.171181 151 40991ft 504kts
24-Sep-13 14:22 37.846670 -122.062244 152 40988ft 500kts
24-Sep-13 14:23 37.736845 -121.954488 152 41025ft 502kts
24-Sep-13 14:24 37.626307 -121.846449 152 41009ft 500kts
24-Sep-13 14:25 37.515855 -121.738916 152 41009ft 500kts
24-Sep-13 14:26 37.405544 -121.631931 152 41039ft 502kts
24-Sep-13 14:27 37.294572 -121.524718 152 41039ft 502kts
24-Sep-13 14:28 37.183568 -121.417882 152 41039ft 502kts
24-Sep-13 14:29 37.072565 -121.311478 152 41007ft 500kts
24-Sep-13 14:30 36.962072 -121.205898 152 41007ft 500kts
24-Sep-13 14:31 36.851072 -121.100278 152 40996ft 501kts
24-Sep-13 14:32 36.740097 -120.995074 152 41000ft 500kts
24-Sep-13 14:33 36.629222 -120.890343 152 41012ft 497kts
24-Sep-13 14:34 36.518947 -120.786571 151 40992ft 497kts
24-Sep-13 14:35 36.408154 -120.682687 151 40970ft 497kts
24-Sep-13 14:36 36.297938 -120.579701 151 40953ft 499kts
24-Sep-13 14:37 36.187499 -120.476908 152 40941ft 490kts
24-Sep-13 14:38 36.078233 -120.375564 152 40939ft 490kts
24-Sep-13 14:39 35.969301 -120.274875 152 39908ft 484kts
24-Sep-13 14:40 35.862326 -120.176049 153 38100ft 475kts
24-Sep-13 14:41 35.758357 -120.080747 154 36823ft 453kts
24-Sep-13 14:42 35.651693 -119.983295 153 36117ft 504kts
24-Sep-13 14:43 35.538182 -119.884783 153 35185ft 492kts
24-Sep-13 14:44 35.424485 -119.786236 150 34171ft 501kts
24-Sep-13 14:45 35.313390 -119.690781 151 32875ft 469kts
24-Sep-13 14:46 35.211257 -119.603308 151 31496ft 430kts
24-Sep-13 14:47 35.114011 -119.520390 150 29239ft 418kts
24-Sep-13 14:48 35.019251 -119.439811 150 27546ft 409kts
24-Sep-13 14:49 34.932919 -119.366245 153 26015ft 400kts
24-Sep-13 14:50 34.839888 -119.287003 150 24348ft 374kts
24-Sep-13 14:51 34.755439 -119.215757 150 22188ft 363kts
24-Sep-13 14:52 34.682952 -119.154729 150 20709ft 350kts
24-Sep-13 14:53 34.595290 -119.080849 149 19051ft 340kts
24-Sep-13 14:54 34.518318 -119.016205 149 17709ft 327kts
24-Sep-13 14:55 34.446832 -118.956497 150 16413ft 317kts
24-Sep-13 14:56 34.383143 -118.903359 149 15190ft 324kts
24-Sep-13 15:00 34.041209 -118.749532 124 11995ft 315kts
24-Sep-13 15:01 34.028851 -118.652128 92 11996ft 301kts
24-Sep-13 15:02 34.019506 -118.553634 96 10344ft 294kts
24-Sep-13 15:03 34.011519 -118.456659 88 7990ft 285kts
24-Sep-13 15:04 34.019710 -118.367532 82 6536ft 253kts
24-Sep-13 15:05 34.028265 -118.284574 82 4751ft 245kts
24-Sep-13 15:06 34.035406 -118.215754 82 3560ft 254kts
24-Sep-13 15:07 34.045156 -118.122815 86 3026ft 222kts
24-Sep-13 15:08 34.015919 -118.084704 190 2528ft 204kts
24-Sep-13 15:09 33.982686 -118.141237 255 2499ft 175kts
24-Sep-13 15:10 33.974268 -118.189467 260 2500ft 175kts
24-Sep-13 15:11 33.968125 -118.245674 262 2501ft 155kts
24-Sep-13 15:12 33.962998 -118.295243 262 1851ft 143kts
24-Sep-13 15:13 33.958167 -118.342991 262 1086ft 139kts
24-Sep-13 15:14 33.953375 -118.389346 262 372ft 138kts
24-Sep-13 15:15 33.949902 -118.423376 261 140ft 42kts
24-Sep-13 15:16 33.947405 -118.427798 196 140ft 15kts
24-Sep-13 15:17 33.946580 -118.424807 82 140ft 14kts
24-Sep-13 15:18 33.947270 -118.418111 82 140ft 15kts
24-Sep-13 15:19 33.947784 -118.413107 149 140ft 5kts
24-Sep-13 15:20 33.944724 -118.412695 172 140ft 4kts
24-Sep-13 15:21 33.944571 -118.411895 82 140ft 2kts
24-Sep-13 15:22 33.944594 -118.411663 82 140ft 0kts

Navigation Log

Ident Type
Flight plan parsing failed, navigation log unavailable